Addyston, OH

7:53 AM EDT on April 21, 2015 (GMT -0400)
Miami Township | | Change Station
CLOSE
Current Station
Personal Weather Station
Location: Cincinnati, OH
Elevation: 817 ft
Nearby Weather Stations
Active Advisory: Special Statement Active Notice: Local Storm Report

Elev 817 ft 39.14 °N, 84.70 °W | Updated 8 seconds ago

Clear
Clear
44.2 °F
Feels Like 44 °F
N
0.9
Wind Variable Wind from SE
Gusts 2.0 mph

Today
High -- | Low -- °F
--% Chance of Precip.
Yesterday
High -- | Low -- °F
Precip. -- in
6:53 AM 8:21 PM
Waxing Crescent, 10% visible
Pressure 29.80 in
Visibility 10.0 miles
Clouds Few 3500 ft
Windchill 44 °F
Dew Point 37 °F
Humidity 76%
Rainfall 0.00 in
Snow Depth Not available.
UV 0.9 out of 12
Pollen 11.00 out of 12
Air Quality Not available.
Flu Activity Regional
METAR KCVG 211052Z 19006KT 10SM FEW035 05/01 A2980 RMK AO2 SLP091 T00500006

More Conditions Fewer Conditions

Pressure 29.80 in
Visibility 10.0 miles
Clouds Few 3500 ft
Windchill 44 °F
Dew Point 37 °F
Humidity 76%
Rainfall 0.00 in
Snow Depth Not available.
UV 0.9 out of 12
Pollen 11.00 out of 12
Air Quality Not available.
Flu Activity Regional
METAR KCVG 211052Z 19006KT 10SM FEW035 05/01 A2980 RMK AO2 SLP091 T00500006

More Conditions Fewer Conditions

10-Day Weather Forecast

Almanac

Astronomy

Apr. 21, 2015 Rise Set
Actual Time
Civil Twilight
Nautical Twilight
Astronomical Twilight
Moon
Length of Visible Light
Length of Day
Tomorrow will be .
, % of the Moon is Illuminated

Today's Extremes

State Highs State Lows

Community

WunderPhotos

Upload Photos

1,815,349 photos uploaded!

WunderBlogs® & News

Nearby

Air Quality

  Air Quality AQ Index Pollutant
Not available.

Snow Depth

Station Depth Elevation

Earthquake Activity

City Distance Mag. Time & Date
Minimum magnitude displayed is 2.5.

Coastal Water Temperatures

Place Temperature

Stations

Nearby Weather Stations

Station Location Temp. Windchill Dew Point Humidity Wind Precip. Elev Updated Type
                   
Special Statement
Statement as of 3:16 AM EDT on April 21, 2015

... Gusty winds expected today...

Westerly winds will increase in strength today... becoming
especially gusty from late morning through mid afternoon. Wind
gusts may be as high as 35 to 45 mph.

These gusts may make driving difficult. Motorists in high profile
vehicles should use caution until the winds subside.